Time;durP1;ratioP1;P1;durP2;ratioP2;P2;SDS_P1;SDS_P2;PMS_P1;PMS_P2;Temp;Humidity;BMP_temperature;BMP_pressure;BME280_temperature;BME280_humidity;BME280_pressure;Samples;Min_cycle;Max_cycle;Signal;HPM_P1;HPM_P2
2022/07/21 00:01:00;;;;;;;9.9;7.649999;;;;;;;21.25;58.39844;95574.46;;;;
2022/07/21 00:02:00;;;;;;;9.9;7.649999;;;;;;;21.25;58.39844;95574.46;;;;
2022/07/21 00:03:01;;;;;;;9.9;7.649999;;;;;;;21.25;58.39844;95574.46;;;;
2022/07/21 00:04:02;;;;;;;9.9;7.649999;;;;;;;21.25;58.39844;95574.46;;;;
2022/07/21 00:05:03;;;;;;;9.9;7.649999;;;;;;;21.25;58.39844;95574.46;;;;
2022/07/21 00:06:04;;;;;;;9.9;7.649999;;;;;;;21.25;58.39844;95574.46;;;;
2022/07/21 00:07:06;;;;;;;9.9;7.649999;;;;;;;21.25;58.39844;95574.46;;;;
2022/07/21 00:08:06;;;;;;;9.9;7.649999;;;;;;;21.25;58.39844;95574.46;;;;
2022/07/21 00:09:07;;;;;;;8.699999;7.800001;;;;;;;20.99;59.97852;95582.84;;;;
2022/07/21 00:10:07;;;;;;;8.699999;7.800001;;;;;;;20.99;59.97852;95582.84;;;;
2022/07/21 00:11:09;;;;;;;8.699999;7.800001;;;;;;;20.99;59.97852;95582.84;;;;
2022/07/21 00:12:09;;;;;;;8.699999;7.800001;;;;;;;20.99;59.97852;95582.84;;;;
2022/07/21 00:13:10;;;;;;;8.699999;7.800001;;;;;;;20.99;59.97852;95582.84;;;;
2022/07/21 00:14:10;;;;;;;8.699999;7.800001;;;;;;;20.99;59.97852;95582.84;;;;
2022/07/21 00:15:12;;;;;;;8.699999;7.800001;;;;;;;20.99;59.97852;95582.84;;;;
2022/07/21 00:16:15;;;;;;;8.699999;7.800001;;;;;;;20.99;59.97852;95582.84;;;;
2022/07/21 00:17:15;;;;;;;8.699999;7.800001;;;;;;;20.99;59.97852;95582.84;;;;
2022/07/21 00:18:16;;;;;;;8.699999;7.800001;;;;;;;20.99;59.97852;95582.84;;;;
2022/07/21 00:19:18;;;;;;;10.15;7.95;;;;;;;20.85;61.34277;95600.14;;;;
2022/07/21 00:20:18;;;;;;;10.15;7.95;;;;;;;20.85;61.34277;95600.14;;;;
2022/07/21 00:21:20;;;;;;;10.15;7.95;;;;;;;20.85;61.34277;95600.14;;;;
2022/07/21 00:22:20;;;;;;;10.15;7.95;;;;;;;20.85;61.34277;95600.14;;;;
2022/07/21 00:23:21;;;;;;;10.15;7.95;;;;;;;20.85;61.34277;95600.14;;;;
2022/07/21 00:24:21;;;;;;;10.15;7.95;;;;;;;20.85;61.34277;95600.14;;;;
2022/07/21 00:25:22;;;;;;;10.15;7.95;;;;;;;20.85;61.34277;95600.14;;;;
2022/07/21 00:26:23;;;;;;;10.15;7.95;;;;;;;20.85;61.34277;95600.14;;;;
2022/07/21 00:27:23;;;;;;;10.15;7.95;;;;;;;20.85;61.34277;95600.14;;;;
2022/07/21 00:28:24;;;;;;;10.15;7.95;;;;;;;20.85;61.34277;95600.14;;;;
2022/07/21 00:29:24;;;;;;;10.15;7.95;;;;;;;20.85;61.34277;95600.14;;;;
2022/07/21 00:30:25;;;;;;;9.700001;8.799999;;;;;;;20.63;62.47266;95614.75;;;;
2022/07/21 00:31:25;;;;;;;9.700001;8.799999;;;;;;;20.63;62.47266;95614.75;;;;
2022/07/21 00:32:26;;;;;;;9.700001;8.799999;;;;;;;20.63;62.47266;95614.75;;;;
2022/07/21 00:33:26;;;;;;;9.700001;8.799999;;;;;;;20.63;62.47266;95614.75;;;;
2022/07/21 00:34:27;;;;;;;9.700001;8.799999;;;;;;;20.63;62.47266;95614.75;;;;
2022/07/21 00:35:27;;;;;;;9.700001;8.799999;;;;;;;20.63;62.47266;95614.75;;;;
2022/07/21 00:36:28;;;;;;;9.700001;8.799999;;;;;;;20.63;62.47266;95614.75;;;;
2022/07/21 00:37:29;;;;;;;9.700001;8.799999;;;;;;;20.63;62.47266;95614.75;;;;
2022/07/21 00:38:29;;;;;;;9.700001;8.799999;;;;;;;20.63;62.47266;95614.75;;;;
2022/07/21 00:39:31;;;;;;;9.700001;8.799999;;;;;;;20.63;62.47266;95614.75;;;;
2022/07/21 00:40:31;;;;;;;9.35;8.249999;;;;;;;20.47;63.54395;95630.97;;;;
2022/07/21 00:41:34;;;;;;;9.35;8.249999;;;;;;;20.47;63.54395;95630.97;;;;
2022/07/21 00:42:34;;;;;;;9.35;8.249999;;;;;;;20.47;63.54395;95630.97;;;;
2022/07/21 00:43:35;;;;;;;9.35;8.249999;;;;;;;20.47;63.54395;95630.97;;;;
2022/07/21 00:44:36;;;;;;;9.35;8.249999;;;;;;;20.47;63.54395;95630.97;;;;
2022/07/21 00:45:36;;;;;;;9.35;8.249999;;;;;;;20.47;63.54395;95630.97;;;;
2022/07/21 00:46:37;;;;;;;9.35;8.249999;;;;;;;20.47;63.54395;95630.97;;;;
2022/07/21 00:47:37;;;;;;;9.35;8.249999;;;;;;;20.47;63.54395;95630.97;;;;
2022/07/21 00:48:38;;;;;;;9.35;8.249999;;;;;;;20.47;63.54395;95630.97;;;;
2022/07/21 00:49:40;;;;;;;9.35;8.249999;;;;;;;20.47;63.54395;95630.97;;;;
2022/07/21 00:50:41;;;;;;;9.35;8.249999;;;;;;;20.47;63.54395;95630.97;;;;
2022/07/21 00:51:41;;;;;;;13.2;9.749999;;;;;;;20.36;64.36816;95622.06;;;;
2022/07/21 00:52:42;;;;;;;13.2;9.749999;;;;;;;20.36;64.36816;95622.06;;;;
2022/07/21 00:53:43;;;;;;;13.2;9.749999;;;;;;;20.36;64.36816;95622.06;;;;
2022/07/21 00:54:44;;;;;;;13.2;9.749999;;;;;;;20.36;64.36816;95622.06;;;;
2022/07/21 00:55:46;;;;;;;13.2;9.749999;;;;;;;20.36;64.36816;95622.06;;;;
2022/07/21 00:56:47;;;;;;;13.2;9.749999;;;;;;;20.36;64.36816;95622.06;;;;
2022/07/21 00:57:47;;;;;;;13.2;9.749999;;;;;;;20.36;64.36816;95622.06;;;;
2022/07/21 00:58:49;;;;;;;13.2;9.749999;;;;;;;20.36;64.36816;95622.06;;;;
2022/07/21 00:59:49;;;;;;;13.2;9.749999;;;;;;;20.36;64.36816;95622.06;;;;
2022/07/21 01:00:50;;;;;;;13.2;9.749999;;;;;;;20.36;64.36816;95622.06;;;;
2022/07/21 01:01:51;;;;;;;11.5;10.05;;;;;;;20.38;65.20801;95625.83;;;;
2022/07/21 01:02:51;;;;;;;11.5;10.05;;;;;;;20.38;65.20801;95625.83;;;;
2022/07/21 01:03:52;;;;;;;11.5;10.05;;;;;;;20.38;65.20801;95625.83;;;;
2022/07/21 01:04:53;;;;;;;11.5;10.05;;;;;;;20.38;65.20801;95625.83;;;;
2022/07/21 01:05:54;;;;;;;11.5;10.05;;;;;;;20.38;65.20801;95625.83;;;;
2022/07/21 01:06:54;;;;;;;11.5;10.05;;;;;;;20.38;65.20801;95625.83;;;;
2022/07/21 01:08:02;;;;;;;11.5;10.05;;;;;;;20.38;65.20801;95625.83;;;;
2022/07/21 01:09:02;;;;;;;11.5;10.05;;;;;;;20.38;65.20801;95625.83;;;;
2022/07/21 01:10:03;;;;;;;11.5;10.05;;;;;;;20.38;65.20801;95625.83;;;;
2022/07/21 01:11:04;;;;;;;11.5;10.05;;;;;;;20.38;65.20801;95625.83;;;;
2022/07/21 01:12:05;;;;;;;11.5;10.05;;;;;;;20.38;65.20801;95625.83;;;;
2022/07/21 01:13:06;;;;;;;11.1;9.749999;;;;;;;20.28;66.1084;95632.53;;;;
2022/07/21 01:14:07;;;;;;;11.1;9.749999;;;;;;;20.28;66.1084;95632.53;;;;
2022/07/21 01:15:08;;;;;;;11.1;9.749999;;;;;;;20.28;66.1084;95632.53;;;;
2022/07/21 01:16:11;;;;;;;11.1;9.749999;;;;;;;20.28;66.1084;95632.53;;;;
2022/07/21 01:17:12;;;;;;;11.1;9.749999;;;;;;;20.28;66.1084;95632.53;;;;
2022/07/21 01:18:12;;;;;;;11.1;9.749999;;;;;;;20.28;66.1084;95632.53;;;;
2022/07/21 01:19:13;;;;;;;11.1;9.749999;;;;;;;20.28;66.1084;95632.53;;;;
2022/07/21 01:20:14;;;;;;;11.1;9.749999;;;;;;;20.28;66.1084;95632.53;;;;
2022/07/21 01:21:17;;;;;;;11.1;9.749999;;;;;;;20.28;66.1084;95632.53;;;;
2022/07/21 01:22:28;;;;;;;11.1;9.749999;;;;;;;20.28;66.1084;95632.53;;;;
2022/07/21 01:23:29;;;;;;;10.8;9.7;;;;;;;20.18;66.93262;95627.91;;;;
2022/07/21 01:24:31;;;;;;;10.8;9.7;;;;;;;20.18;66.93262;95627.91;;;;
2022/07/21 01:25:31;;;;;;;10.8;9.7;;;;;;;20.18;66.93262;95627.91;;;;
2022/07/21 01:26:32;;;;;;;10.8;9.7;;;;;;;20.18;66.93262;95627.91;;;;
2022/07/21 01:27:41;;;;;;;10.8;9.7;;;;;;;20.18;66.93262;95627.91;;;;
2022/07/21 01:28:41;;;;;;;10.8;9.7;;;;;;;20.18;66.93262;95627.91;;;;
2022/07/21 01:29:42;;;;;;;10.8;9.7;;;;;;;20.18;66.93262;95627.91;;;;
2022/07/21 01:30:42;;;;;;;10.8;9.7;;;;;;;20.18;66.93262;95627.91;;;;
2022/07/21 01:31:43;;;;;;;10.8;9.7;;;;;;;20.18;66.93262;95627.91;;;;
2022/07/21 01:32:46;;;;;;;10.8;9.7;;;;;;;20.18;66.93262;95627.91;;;;
2022/07/21 01:33:47;;;;;;;12.45;11.25;;;;;;;20.08;67.62207;95610.52;;;;
2022/07/21 01:34:48;;;;;;;12.45;11.25;;;;;;;20.08;67.62207;95610.52;;;;
2022/07/21 01:35:49;;;;;;;12.45;11.25;;;;;;;20.08;67.62207;95610.52;;;;
2022/07/21 01:36:50;;;;;;;12.45;11.25;;;;;;;20.08;67.62207;95610.52;;;;
2022/07/21 01:37:50;;;;;;;12.45;11.25;;;;;;;20.08;67.62207;95610.52;;;;
2022/07/21 01:44:04;;;;;;;12.45;11.25;;;;;;;20.08;67.62207;95610.52;;;;
2022/07/21 01:45:07;;;;;;;12.1;11;;;;;;;20.02;68.3623;95598.16;;;;
2022/07/21 01:46:09;;;;;;;12.1;11;;;;;;;20.02;68.3623;95598.16;;;;
2022/07/21 01:47:10;;;;;;;12.1;11;;;;;;;20.02;68.3623;95598.16;;;;
2022/07/21 01:48:11;;;;;;;12.1;11;;;;;;;20.02;68.3623;95598.16;;;;
2022/07/21 01:49:11;;;;;;;12.1;11;;;;;;;20.02;68.3623;95598.16;;;;
2022/07/21 01:50:14;;;;;;;12.1;11;;;;;;;20.02;68.3623;95598.16;;;;
2022/07/21 01:51:15;;;;;;;12.1;11;;;;;;;20.02;68.3623;95598.16;;;;
2022/07/21 01:52:16;;;;;;;12.1;11;;;;;;;20.02;68.3623;95598.16;;;;
2022/07/21 01:53:17;;;;;;;12.1;11;;;;;;;20.02;68.3623;95598.16;;;;
2022/07/21 01:54:17;;;;;;;12.1;11;;;;;;;20.02;68.3623;95598.16;;;;
2022/07/21 01:55:18;;;;;;;12.7;11.5;;;;;;;19.91;69.09375;95615.16;;;;
2022/07/21 01:56:18;;;;;;;12.7;11.5;;;;;;;19.91;69.09375;95615.16;;;;
2022/07/21 01:57:19;;;;;;;12.7;11.5;;;;;;;19.91;69.09375;95615.16;;;;
2022/07/21 01:58:20;;;;;;;12.7;11.5;;;;;;;19.91;69.09375;95615.16;;;;
2022/07/21 01:59:20;;;;;;;12.7;11.5;;;;;;;19.91;69.09375;95615.16;;;;
2022/07/21 02:00:21;;;;;;;12.7;11.5;;;;;;;19.91;69.09375;95615.16;;;;
2022/07/21 02:01:21;;;;;;;12.7;11.5;;;;;;;19.91;69.09375;95615.16;;;;
2022/07/21 02:02:24;;;;;;;12.7;11.5;;;;;;;19.91;69.09375;95615.16;;;;
2022/07/21 02:03:25;;;;;;;12.7;11.5;;;;;;;19.91;69.09375;95615.16;;;;
2022/07/21 02:04:26;;;;;;;12.7;11.5;;;;;;;19.91;69.09375;95615.16;;;;
2022/07/21 02:05:26;;;;;;;12.7;11.5;;;;;;;19.91;69.09375;95615.16;;;;
2022/07/21 02:06:27;;;;;;;12.35;11.15;;;;;;;19.96;69.61914;95618.8;;;;
2022/07/21 02:07:28;;;;;;;12.35;11.15;;;;;;;19.96;69.61914;95618.8;;;;
2022/07/21 02:08:28;;;;;;;12.35;11.15;;;;;;;19.96;69.61914;95618.8;;;;
2022/07/21 02:09:29;;;;;;;12.35;11.15;;;;;;;19.96;69.61914;95618.8;;;;
2022/07/21 02:10:30;;;;;;;12.35;11.15;;;;;;;19.96;69.61914;95618.8;;;;
2022/07/21 02:11:30;;;;;;;12.35;11.15;;;;;;;19.96;69.61914;95618.8;;;;
2022/07/21 02:12:31;;;;;;;12.35;11.15;;;;;;;19.96;69.61914;95618.8;;;;
2022/07/21 02:13:31;;;;;;;12.35;11.15;;;;;;;19.96;69.61914;95618.8;;;;
2022/07/21 02:14:32;;;;;;;12.35;11.15;;;;;;;19.96;69.61914;95618.8;;;;
2022/07/21 02:15:32;;;;;;;12.35;11.15;;;;;;;19.96;69.61914;95618.8;;;;
2022/07/21 02:16:33;;;;;;;13.2;11.85;;;;;;;19.99;70.16406;95626.73;;;;
2022/07/21 02:17:33;;;;;;;13.2;11.85;;;;;;;19.99;70.16406;95626.73;;;;
2022/07/21 02:18:34;;;;;;;13.2;11.85;;;;;;;19.99;70.16406;95626.73;;;;
2022/07/21 02:19:35;;;;;;;13.2;11.85;;;;;;;19.99;70.16406;95626.73;;;;
2022/07/21 02:20:35;;;;;;;13.2;11.85;;;;;;;19.99;70.16406;95626.73;;;;
2022/07/21 02:21:36;;;;;;;13.2;11.85;;;;;;;19.99;70.16406;95626.73;;;;
2022/07/21 02:22:36;;;;;;;13.2;11.85;;;;;;;19.99;70.16406;95626.73;;;;
2022/07/21 02:23:37;;;;;;;13.2;11.85;;;;;;;19.99;70.16406;95626.73;;;;
2022/07/21 02:24:39;;;;;;;13.2;11.85;;;;;;;19.99;70.16406;95626.73;;;;
2022/07/21 02:25:40;;;;;;;13.2;11.85;;;;;;;19.99;70.16406;95626.73;;;;
2022/07/21 02:26:40;;;;;;;13.2;11.85;;;;;;;19.99;70.16406;95626.73;;;;
2022/07/21 02:27:41;;;;;;;12.65;11.45;;;;;;;20.06;70.48438;95636.7;;;;
2022/07/21 02:28:43;;;;;;;12.65;11.45;;;;;;;20.06;70.48438;95636.7;;;;
2022/07/21 02:29:44;;;;;;;12.65;11.45;;;;;;;20.06;70.48438;95636.7;;;;
2022/07/21 02:30:45;;;;;;;12.65;11.45;;;;;;;20.06;70.48438;95636.7;;;;
2022/07/21 02:31:46;;;;;;;12.65;11.45;;;;;;;20.06;70.48438;95636.7;;;;
2022/07/21 02:32:46;;;;;;;12.65;11.45;;;;;;;20.06;70.48438;95636.7;;;;
2022/07/21 02:33:47;;;;;;;12.65;11.45;;;;;;;20.06;70.48438;95636.7;;;;
2022/07/21 02:34:47;;;;;;;12.65;11.45;;;;;;;20.06;70.48438;95636.7;;;;
2022/07/21 02:35:48;;;;;;;12.65;11.45;;;;;;;20.06;70.48438;95636.7;;;;
2022/07/21 02:36:48;;;;;;;12.65;11.45;;;;;;;20.06;70.48438;95636.7;;;;
2022/07/21 02:37:49;;;;;;;12.4;11.15;;;;;;;20.03;70.81738;95638.69;;;;
2022/07/21 02:38:50;;;;;;;12.4;11.15;;;;;;;20.03;70.81738;95638.69;;;;
2022/07/21 02:39:51;;;;;;;12.4;11.15;;;;;;;20.03;70.81738;95638.69;;;;
2022/07/21 02:40:51;;;;;;;12.4;11.15;;;;;;;20.03;70.81738;95638.69;;;;
2022/07/21 02:41:52;;;;;;;12.4;11.15;;;;;;;20.03;70.81738;95638.69;;;;
2022/07/21 02:42:52;;;;;;;12.4;11.15;;;;;;;20.03;70.81738;95638.69;;;;
2022/07/21 02:43:53;;;;;;;12.4;11.15;;;;;;;20.03;70.81738;95638.69;;;;
2022/07/21 02:44:53;;;;;;;12.4;11.15;;;;;;;20.03;70.81738;95638.69;;;;
2022/07/21 02:45:54;;;;;;;12.4;11.15;;;;;;;20.03;70.81738;95638.69;;;;
2022/07/21 02:46:54;;;;;;;12.4;11.15;;;;;;;20.03;70.81738;95638.69;;;;
2022/07/21 02:47:55;;;;;;;12.4;11.15;;;;;;;20.03;70.81738;95638.69;;;;
2022/07/21 02:48:58;;;;;;;13.2;11.8;;;;;;;19.98;71.18457;95637.73;;;;
2022/07/21 02:49:58;;;;;;;13.2;11.8;;;;;;;19.98;71.18457;95637.73;;;;
2022/07/21 02:50:59;;;;;;;13.2;11.8;;;;;;;19.98;71.18457;95637.73;;;;
2022/07/21 02:51:59;;;;;;;13.2;11.8;;;;;;;19.98;71.18457;95637.73;;;;
2022/07/21 02:53:00;;;;;;;13.2;11.8;;;;;;;19.98;71.18457;95637.73;;;;
2022/07/21 02:54:03;;;;;;;13.2;11.8;;;;;;;19.98;71.18457;95637.73;;;;
2022/07/21 02:55:04;;;;;;;13.2;11.8;;;;;;;19.98;71.18457;95637.73;;;;
2022/07/21 02:56:05;;;;;;;13.2;11.8;;;;;;;19.98;71.18457;95637.73;;;;
2022/07/21 02:57:06;;;;;;;13.2;11.8;;;;;;;19.98;71.18457;95637.73;;;;
2022/07/21 02:58:06;;;;;;;13.2;11.8;;;;;;;19.98;71.18457;95637.73;;;;
2022/07/21 02:59:10;;;;;;;12.85;11.5;;;;;;;19.86;71.58496;95630.44;;;;
2022/07/21 03:00:10;;;;;;;12.85;11.5;;;;;;;19.86;71.58496;95630.44;;;;
2022/07/21 03:01:12;;;;;;;12.85;11.5;;;;;;;19.86;71.58496;95630.44;;;;
2022/07/21 03:02:12;;;;;;;12.85;11.5;;;;;;;19.86;71.58496;95630.44;;;;
2022/07/21 03:03:13;;;;;;;12.85;11.5;;;;;;;19.86;71.58496;95630.44;;;;
2022/07/21 03:04:13;;;;;;;12.85;11.5;;;;;;;19.86;71.58496;95630.44;;;;
2022/07/21 03:05:14;;;;;;;12.85;11.5;;;;;;;19.86;71.58496;95630.44;;;;
2022/07/21 03:06:15;;;;;;;12.85;11.5;;;;;;;19.86;71.58496;95630.44;;;;
2022/07/21 03:07:15;;;;;;;12.85;11.5;;;;;;;19.86;71.58496;95630.44;;;;
2022/07/21 03:08:16;;;;;;;12.85;11.5;;;;;;;19.86;71.58496;95630.44;;;;
2022/07/21 03:09:17;;;;;;;12.85;11.5;;;;;;;19.86;71.58496;95630.44;;;;
2022/07/21 03:10:18;;;;;;;13.65;12.3;;;;;;;19.77;72.04199;95628.78;;;;
2022/07/21 03:11:18;;;;;;;13.65;12.3;;;;;;;19.77;72.04199;95628.78;;;;
2022/07/21 03:12:19;;;;;;;13.65;12.3;;;;;;;19.77;72.04199;95628.78;;;;
2022/07/21 03:13:19;;;;;;;13.65;12.3;;;;;;;19.77;72.04199;95628.78;;;;
2022/07/21 03:14:21;;;;;;;13.65;12.3;;;;;;;19.77;72.04199;95628.78;;;;
2022/07/21 03:15:21;;;;;;;13.65;12.3;;;;;;;19.77;72.04199;95628.78;;;;
2022/07/21 03:16:22;;;;;;;13.65;12.3;;;;;;;19.77;72.04199;95628.78;;;;
2022/07/21 03:17:22;;;;;;;13.65;12.3;;;;;;;19.77;72.04199;95628.78;;;;
2022/07/21 03:18:24;;;;;;;13.65;12.3;;;;;;;19.77;72.04199;95628.78;;;;
2022/07/21 03:19:24;;;;;;;13.65;12.3;;;;;;;19.77;72.04199;95628.78;;;;
2022/07/21 03:20:25;;;;;;;13.8;12.6;;;;;;;19.64;72.50488;95636.88;;;;
2022/07/21 03:21:27;;;;;;;13.8;12.6;;;;;;;19.64;72.50488;95636.88;;;;
2022/07/21 03:22:28;;;;;;;13.8;12.6;;;;;;;19.64;72.50488;95636.88;;;;
2022/07/21 03:23:28;;;;;;;13.8;12.6;;;;;;;19.64;72.50488;95636.88;;;;
2022/07/21 03:24:29;;;;;;;13.8;12.6;;;;;;;19.64;72.50488;95636.88;;;;
2022/07/21 03:25:30;;;;;;;13.8;12.6;;;;;;;19.64;72.50488;95636.88;;;;
2022/07/21 03:26:31;;;;;;;13.8;12.6;;;;;;;19.64;72.50488;95636.88;;;;
2022/07/21 03:27:35;;;;;;;13.8;12.6;;;;;;;19.64;72.50488;95636.88;;;;
2022/07/21 03:28:36;;;;;;;13.8;12.6;;;;;;;19.64;72.50488;95636.88;;;;
2022/07/21 03:29:36;;;;;;;13.8;12.6;;;;;;;19.64;72.50488;95636.88;;;;
2022/07/21 03:30:37;;;;;;;13.8;12.6;;;;;;;19.64;72.50488;95636.88;;;;
2022/07/21 03:31:37;;;;;;;15.4;13.9;;;;;;;19.7;72.8457;95616.12;;;;
2022/07/21 03:32:38;;;;;;;15.4;13.9;;;;;;;19.7;72.8457;95616.12;;;;
2022/07/21 03:33:39;;;;;;;15.4;13.9;;;;;;;19.7;72.8457;95616.12;;;;
2022/07/21 03:34:39;;;;;;;15.4;13.9;;;;;;;19.7;72.8457;95616.12;;;;
2022/07/21 03:35:41;;;;;;;15.4;13.9;;;;;;;19.7;72.8457;95616.12;;;;
2022/07/21 03:36:42;;;;;;;15.4;13.9;;;;;;;19.7;72.8457;95616.12;;;;
2022/07/21 03:37:43;;;;;;;15.4;13.9;;;;;;;19.7;72.8457;95616.12;;;;
2022/07/21 03:38:45;;;;;;;15.4;13.9;;;;;;;19.7;72.8457;95616.12;;;;
2022/07/21 03:39:45;;;;;;;15.4;13.9;;;;;;;19.7;72.8457;95616.12;;;;
2022/07/21 03:40:46;;;;;;;15.4;13.9;;;;;;;19.7;72.8457;95616.12;;;;
2022/07/21 03:41:47;;;;;;;14.95;13.6;;;;;;;19.8;73.01465;95623.81;;;;
2022/07/21 03:42:47;;;;;;;14.95;13.6;;;;;;;19.8;73.01465;95623.81;;;;
2022/07/21 03:43:47;;;;;;;14.95;13.6;;;;;;;19.8;73.01465;95623.81;;;;
2022/07/21 03:44:48;;;;;;;14.95;13.6;;;;;;;19.8;73.01465;95623.81;;;;
2022/07/21 03:45:48;;;;;;;14.95;13.6;;;;;;;19.8;73.01465;95623.81;;;;
2022/07/21 03:46:49;;;;;;;14.95;13.6;;;;;;;19.8;73.01465;95623.81;;;;
2022/07/21 03:47:49;;;;;;;14.95;13.6;;;;;;;19.8;73.01465;95623.81;;;;
2022/07/21 03:48:50;;;;;;;14.95;13.6;;;;;;;19.8;73.01465;95623.81;;;;
2022/07/21 03:49:51;;;;;;;14.95;13.6;;;;;;;19.8;73.01465;95623.81;;;;
2022/07/21 03:50:51;;;;;;;14.95;13.6;;;;;;;19.8;73.01465;95623.81;;;;
2022/07/21 03:51:52;;;;;;;14.95;13.6;;;;;;;19.8;73.01465;95623.81;;;;
2022/07/21 03:52:52;;;;;;;16.4;15;;;;;;;20;73.1582;95654.24;;;;
2022/07/21 03:53:53;;;;;;;16.4;15;;;;;;;20;73.1582;95654.24;;;;
2022/07/21 03:55:07;;;;;;;16.4;15;;;;;;;20;73.1582;95654.24;;;;
2022/07/21 03:56:09;;;;;;;16.4;15;;;;;;;20;73.1582;95654.24;;;;
2022/07/21 03:57:09;;;;;;;16.4;15;;;;;;;20;73.1582;95654.24;;;;
2022/07/21 03:58:10;;;;;;;16.4;15;;;;;;;20;73.1582;95654.24;;;;
2022/07/21 03:59:11;;;;;;;16.4;15;;;;;;;20;73.1582;95654.24;;;;
2022/07/21 04:00:12;;;;;;;16.4;15;;;;;;;20;73.1582;95654.24;;;;
2022/07/21 04:01:15;;;;;;;16.4;15;;;;;;;20;73.1582;95654.24;;;;
2022/07/21 04:02:16;;;;;;;16.4;15;;;;;;;20;73.1582;95654.24;;;;
2022/07/21 04:03:16;;;;;;;16.15;14.65;;;;;;;20.12;73.29785;95661.67;;;;
2022/07/21 04:04:17;;;;;;;16.15;14.65;;;;;;;20.12;73.29785;95661.67;;;;
2022/07/21 04:05:17;;;;;;;16.15;14.65;;;;;;;20.12;73.29785;95661.67;;;;
2022/07/21 04:06:19;;;;;;;16.15;14.65;;;;;;;20.12;73.29785;95661.67;;;;
2022/07/21 04:07:19;;;;;;;16.15;14.65;;;;;;;20.12;73.29785;95661.67;;;;
2022/07/21 04:08:20;;;;;;;16.15;14.65;;;;;;;20.12;73.29785;95661.67;;;;
2022/07/21 04:09:20;;;;;;;16.15;14.65;;;;;;;20.12;73.29785;95661.67;;;;
2022/07/21 04:10:21;;;;;;;16.15;14.65;;;;;;;20.12;73.29785;95661.67;;;;
2022/07/21 04:11:23;;;;;;;16.15;14.65;;;;;;;20.12;73.29785;95661.67;;;;
2022/07/21 04:12:24;;;;;;;16.15;14.65;;;;;;;20.12;73.29785;95661.67;;;;
2022/07/21 04:13:27;;;;;;;16.15;14.65;;;;;;;20.12;73.29785;95661.67;;;;
2022/07/21 04:14:27;;;;;;;17.3;15.7;;;;;;;20.24;73.50586;95673.46;;;;
2022/07/21 04:15:27;;;;;;;17.3;15.7;;;;;;;20.24;73.50586;95673.46;;;;
2022/07/21 04:16:29;;;;;;;17.3;15.7;;;;;;;20.24;73.50586;95673.46;;;;
2022/07/21 04:17:30;;;;;;;17.3;15.7;;;;;;;20.24;73.50586;95673.46;;;;
2022/07/21 04:18:30;;;;;;;17.3;15.7;;;;;;;20.24;73.50586;95673.46;;;;
2022/07/21 04:19:31;;;;;;;17.3;15.7;;;;;;;20.24;73.50586;95673.46;;;;
2022/07/21 04:20:32;;;;;;;17.3;15.7;;;;;;;20.24;73.50586;95673.46;;;;
2022/07/21 04:21:33;;;;;;;17.3;15.7;;;;;;;20.24;73.50586;95673.46;;;;
2022/07/21 04:22:34;;;;;;;17.3;15.7;;;;;;;20.24;73.50586;95673.46;;;;
2022/07/21 04:23:35;;;;;;;17.3;15.7;;;;;;;20.24;73.50586;95673.46;;;;
2022/07/21 04:24:35;;;;;;;18.35;16.65;;;;;;;20.28;73.52148;95668.38;;;;
2022/07/21 04:25:38;;;;;;;18.35;16.65;;;;;;;20.28;73.52148;95668.38;;;;
2022/07/21 04:26:38;;;;;;;18.35;16.65;;;;;;;20.28;73.52148;95668.38;;;;
2022/07/21 04:27:39;;;;;;;18.35;16.65;;;;;;;20.28;73.52148;95668.38;;;;
2022/07/21 04:28:40;;;;;;;18.35;16.65;;;;;;;20.28;73.52148;95668.38;;;;
2022/07/21 04:29:40;;;;;;;18.35;16.65;;;;;;;20.28;73.52148;95668.38;;;;
2022/07/21 04:30:41;;;;;;;18.35;16.65;;;;;;;20.28;73.52148;95668.38;;;;
2022/07/21 04:31:41;;;;;;;18.35;16.65;;;;;;;20.28;73.52148;95668.38;;;;
2022/07/21 04:32:42;;;;;;;18.35;16.65;;;;;;;20.28;73.52148;95668.38;;;;
2022/07/21 04:33:42;;;;;;;18.35;16.65;;;;;;;20.28;73.52148;95668.38;;;;
2022/07/21 04:34:43;;;;;;;18.35;16.65;;;;;;;20.28;73.52148;95668.38;;;;
2022/07/21 04:35:43;;;;;;;17.95;16.3;;;;;;;20.39;73.78223;95678.08;;;;
2022/07/21 04:36:44;;;;;;;17.95;16.3;;;;;;;20.39;73.78223;95678.08;;;;
2022/07/21 04:37:44;;;;;;;17.95;16.3;;;;;;;20.39;73.78223;95678.08;;;;
2022/07/21 04:38:45;;;;;;;17.95;16.3;;;;;;;20.39;73.78223;95678.08;;;;
2022/07/21 04:39:45;;;;;;;17.95;16.3;;;;;;;20.39;73.78223;95678.08;;;;
2022/07/21 04:40:46;;;;;;;17.95;16.3;;;;;;;20.39;73.78223;95678.08;;;;
2022/07/21 04:41:46;;;;;;;17.95;16.3;;;;;;;20.39;73.78223;95678.08;;;;
2022/07/21 04:42:47;;;;;;;17.95;16.3;;;;;;;20.39;73.78223;95678.08;;;;
2022/07/21 04:43:47;;;;;;;17.95;16.3;;;;;;;20.39;73.78223;95678.08;;;;
2022/07/21 04:44:48;;;;;;;17.95;16.3;;;;;;;20.39;73.78223;95678.08;;;;
2022/07/21 04:45:48;;;;;;;19.3;17.65;;;;;;;20.48;73.75391;95695.29;;;;
2022/07/21 04:46:49;;;;;;;19.3;17.65;;;;;;;20.48;73.75391;95695.29;;;;
2022/07/21 04:47:50;;;;;;;19.3;17.65;;;;;;;20.48;73.75391;95695.29;;;;
2022/07/21 04:48:53;;;;;;;19.3;17.65;;;;;;;20.48;73.75391;95695.29;;;;
2022/07/21 04:49:53;;;;;;;19.3;17.65;;;;;;;20.48;73.75391;95695.29;;;;
2022/07/21 04:50:54;;;;;;;19.3;17.65;;;;;;;20.48;73.75391;95695.29;;;;
2022/07/21 04:51:55;;;;;;;19.3;17.65;;;;;;;20.48;73.75391;95695.29;;;;
2022/07/21 04:52:55;;;;;;;19.3;17.65;;;;;;;20.48;73.75391;95695.29;;;;
2022/07/21 04:53:56;;;;;;;19.3;17.65;;;;;;;20.48;73.75391;95695.29;;;;
2022/07/21 04:54:57;;;;;;;19.3;17.65;;;;;;;20.48;73.75391;95695.29;;;;
2022/07/21 04:55:57;;;;;;;19.3;17.65;;;;;;;20.48;73.75391;95695.29;;;;
2022/07/21 04:56:59;;;;;;;19.55;17.75;;;;;;;20.64;73.82422;95704.49;;;;
2022/07/21 04:57:59;;;;;;;19.55;17.75;;;;;;;20.64;73.82422;95704.49;;;;
2022/07/21 04:59:00;;;;;;;19.55;17.75;;;;;;;20.64;73.82422;95704.49;;;;
2022/07/21 05:00:03;;;;;;;19.55;17.75;;;;;;;20.64;73.82422;95704.49;;;;
2022/07/21 05:01:06;;;;;;;19.55;17.75;;;;;;;20.64;73.82422;95704.49;;;;
2022/07/21 05:02:07;;;;;;;19.55;17.75;;;;;;;20.64;73.82422;95704.49;;;;
2022/07/21 05:03:07;;;;;;;19.55;17.75;;;;;;;20.64;73.82422;95704.49;;;;
2022/07/21 05:04:08;;;;;;;19.55;17.75;;;;;;;20.64;73.82422;95704.49;;;;
2022/07/21 05:05:09;;;;;;;19.55;17.75;;;;;;;20.64;73.82422;95704.49;;;;
2022/07/21 05:06:10;;;;;;;19.55;17.75;;;;;;;20.64;73.82422;95704.49;;;;
2022/07/21 05:07:11;;;;;;;19.1;17.2;;;;;;;20.69;73.85352;95720.62;;;;
2022/07/21 05:08:11;;;;;;;19.1;17.2;;;;;;;20.69;73.85352;95720.62;;;;
2022/07/21 05:09:11;;;;;;;19.1;17.2;;;;;;;20.69;73.85352;95720.62;;;;
2022/07/21 05:10:12;;;;;;;19.1;17.2;;;;;;;20.69;73.85352;95720.62;;;;
2022/07/21 05:11:14;;;;;;;19.1;17.2;;;;;;;20.69;73.85352;95720.62;;;;
2022/07/21 05:12:15;;;;;;;19.1;17.2;;;;;;;20.69;73.85352;95720.62;;;;
2022/07/21 05:13:15;;;;;;;19.1;17.2;;;;;;;20.69;73.85352;95720.62;;;;
2022/07/21 05:14:16;;;;;;;19.1;17.2;;;;;;;20.69;73.85352;95720.62;;;;
2022/07/21 05:15:17;;;;;;;19.1;17.2;;;;;;;20.69;73.85352;95720.62;;;;
2022/07/21 05:16:18;;;;;;;19.1;17.2;;;;;;;20.69;73.85352;95720.62;;;;
2022/07/21 05:17:18;;;;;;;19.1;17.2;;;;;;;20.69;73.85352;95720.62;;;;
2022/07/21 05:18:19;;;;;;;18.55;16.95;;;;;;;20.84;73.99023;95734.12;;;;
2022/07/21 05:19:19;;;;;;;18.55;16.95;;;;;;;20.84;73.99023;95734.12;;;;
2022/07/21 05:20:20;;;;;;;18.55;16.95;;;;;;;20.84;73.99023;95734.12;;;;
2022/07/21 05:21:20;;;;;;;18.55;16.95;;;;;;;20.84;73.99023;95734.12;;;;
2022/07/21 05:22:21;;;;;;;18.55;16.95;;;;;;;20.84;73.99023;95734.12;;;;
2022/07/21 05:23:21;;;;;;;18.55;16.95;;;;;;;20.84;73.99023;95734.12;;;;
2022/07/21 05:24:22;;;;;;;18.55;16.95;;;;;;;20.84;73.99023;95734.12;;;;
2022/07/21 05:25:23;;;;;;;18.55;16.95;;;;;;;20.84;73.99023;95734.12;;;;
2022/07/21 05:26:23;;;;;;;18.55;16.95;;;;;;;20.84;73.99023;95734.12;;;;
2022/07/21 05:27:24;;;;;;;18.55;16.95;;;;;;;20.84;73.99023;95734.12;;;;
2022/07/21 05:28:24;;;;;;;19.35;17.35;;;;;;;20.99;73.85938;95740.52;;;;
2022/07/21 05:29:26;;;;;;;19.35;17.35;;;;;;;20.99;73.85938;95740.52;;;;
2022/07/21 05:30:27;;;;;;;19.35;17.35;;;;;;;20.99;73.85938;95740.52;;;;
2022/07/21 05:31:28;;;;;;;19.35;17.35;;;;;;;20.99;73.85938;95740.52;;;;
2022/07/21 05:32:28;;;;;;;19.35;17.35;;;;;;;20.99;73.85938;95740.52;;;;
2022/07/21 05:33:29;;;;;;;19.35;17.35;;;;;;;20.99;73.85938;95740.52;;;;
2022/07/21 05:34:29;;;;;;;19.35;17.35;;;;;;;20.99;73.85938;95740.52;;;;
2022/07/21 05:35:30;;;;;;;19.35;17.35;;;;;;;20.99;73.85938;95740.52;;;;
2022/07/21 05:36:31;;;;;;;19.35;17.35;;;;;;;20.99;73.85938;95740.52;;;;
2022/07/21 05:37:31;;;;;;;19.35;17.35;;;;;;;20.99;73.85938;95740.52;;;;
2022/07/21 05:38:32;;;;;;;19.35;17.35;;;;;;;20.99;73.85938;95740.52;;;;
2022/07/21 05:39:33;;;;;;;18.9;17.3;;;;;;;21.41;73.42188;95741.65;;;;
2022/07/21 05:40:33;;;;;;;18.9;17.3;;;;;;;21.41;73.42188;95741.65;;;;
2022/07/21 05:41:34;;;;;;;18.9;17.3;;;;;;;21.41;73.42188;95741.65;;;;
2022/07/21 05:42:34;;;;;;;18.9;17.3;;;;;;;21.41;73.42188;95741.65;;;;
2022/07/21 05:43:36;;;;;;;18.9;17.3;;;;;;;21.41;73.42188;95741.65;;;;
2022/07/21 05:44:36;;;;;;;18.9;17.3;;;;;;;21.41;73.42188;95741.65;;;;